Apalachicola, Florida
Current Conditions -  °F | °C
As of 2:53 AM on Friday 31 Oct 2014 (Local Time) from KAAF Reporting Station
Clear Clear  
Wind Chill: 57°   Ceiling: Unl
Heat Index: 57°   Visibility: 10mi
Dew Point: 45°   Wind: 8mph
Humidity: 64%   Direction: 360°N
Pressure: 29.95"   Gusts: NA
Location:  29.73°N, 84.99°W
Report Text: KAAF 310653Z AUTO 36007KT 10SM CLR 14/07 A2995 RMK AO2 SLP141 T01390072 TSNO $
Loading
Personal Weather Stations






























Interactive Weather Map New forecast layout! Learn more

10-Day Weather Forecast

Advertisements
Track Severe Weather on mobile